createdAt,value
2018-06-12T00:00:51.954Z,8.60
2018-06-12T00:03:24.465Z,8.30
2018-06-12T00:05:57.001Z,8.20
2018-06-12T00:08:29.413Z,7.80
2018-06-12T00:11:02.051Z,7.70
2018-06-12T00:13:34.469Z,7.30
2018-06-12T00:16:07.168Z,7.57
2018-06-12T00:18:39.597Z,7.70
2018-06-12T00:21:12.361Z,7.23
2018-06-12T00:23:45.348Z,7.63
2018-06-12T00:26:18.021Z,8.10
2018-06-12T00:28:50.681Z,6.90
2018-06-12T00:31:23.337Z,7.77
2018-06-12T00:33:56.040Z,7.20
2018-06-12T00:36:29.010Z,7.83
2018-06-12T00:39:01.709Z,7.67
2018-06-12T00:41:34.125Z,7.33
2018-06-12T00:44:06.881Z,8.40
2018-06-12T00:46:39.622Z,7.97
2018-06-12T00:49:12.309Z,8.17
2018-06-12T00:51:44.717Z,8.93
2018-06-12T00:54:17.473Z,9.10
2018-06-12T00:57:01.289Z,9.23
2018-06-12T00:59:33.714Z,9.47
2018-06-12T01:02:06.131Z,8.97
2018-06-12T01:04:38.831Z,8.90
2018-06-12T01:07:11.490Z,9.97
2018-06-12T01:09:44.190Z,10.93
2018-06-12T01:12:19.621Z,9.93
2018-06-12T01:14:52.037Z,10.97
2018-06-12T01:17:24.778Z,10.57
2018-06-12T01:19:57.193Z,10.20
2018-06-12T01:22:29.861Z,10.90
2018-06-12T01:25:02.636Z,10.90
2018-06-12T01:27:34.868Z,10.70
2018-06-12T01:30:07.302Z,11.30
2018-06-12T01:32:40.270Z,11.30
2018-06-12T01:35:13.028Z,10.77
2018-06-12T01:37:45.431Z,11.97
2018-06-12T01:40:17.853Z,12.33
2018-06-12T01:42:50.262Z,11.90
2018-06-12T01:45:22.950Z,11.77
2018-06-12T01:47:55.374Z,12.17
2018-06-12T01:50:27.809Z,12.20
2018-06-12T01:53:00.214Z,12.90
2018-06-12T01:55:32.945Z,11.63
2018-06-12T01:58:05.569Z,11.90
2018-06-12T02:00:38.271Z,12.53
2018-06-12T02:03:10.673Z,13.00
2018-06-12T02:05:43.109Z,13.00
2018-06-12T02:08:15.526Z,11.87
2018-06-12T02:10:48.203Z,13.73
2018-06-12T02:13:20.609Z,12.87
2018-06-12T02:15:53.327Z,12.40
2018-06-12T02:18:26.235Z,13.10
2018-06-12T02:20:58.914Z,12.40
2018-06-12T02:23:31.550Z,12.87
2018-06-12T02:26:04.065Z,12.27
2018-06-12T02:28:36.473Z,13.27
2018-06-12T02:31:08.897Z,11.97
2018-06-12T02:33:41.548Z,12.43
2018-06-12T02:36:13.963Z,13.07
2018-06-12T02:38:46.359Z,12.77
2018-06-12T02:41:18.770Z,13.20
2018-06-12T02:43:51.445Z,13.10
2018-06-12T02:46:24.110Z,13.43
2018-06-12T02:48:56.830Z,13.53
2018-06-12T02:51:29.490Z,13.47
2018-06-12T02:54:01.922Z,13.07
2018-06-12T02:56:34.362Z,13.23
2018-06-12T02:59:07.125Z,13.83
2018-06-12T03:01:39.790Z,13.93
2018-06-12T03:04:12.513Z,12.40
2018-06-12T03:06:45.251Z,13.60
2018-06-12T03:09:17.677Z,12.97
2018-06-12T03:11:50.407Z,14.17
2018-06-12T03:14:22.821Z,12.83
2018-06-12T03:16:55.233Z,14.23
2018-06-12T03:19:27.942Z,13.60
2018-06-12T03:22:00.353Z,14.57
2018-06-12T03:24:33.525Z,14.97
2018-06-12T03:27:06.515Z,14.27
2018-06-12T03:29:39.497Z,15.70
2018-06-12T03:32:11.914Z,14.90
2018-06-12T03:34:44.628Z,15.57
2018-06-12T03:37:17.045Z,15.17
2018-06-12T03:39:49.773Z,17.27
2018-06-12T03:42:22.447Z,16.03
2018-06-12T03:44:54.875Z,16.20
2018-06-12T03:47:27.910Z,16.73
2018-06-12T03:50:00.341Z,17.40
2018-06-12T03:52:33.061Z,17.40
2018-06-12T03:55:05.490Z,17.80
2018-06-12T03:57:37.946Z,18.17
2018-06-12T04:00:10.419Z,17.17
2018-06-12T04:02:42.818Z,16.80
2018-06-12T04:05:15.242Z,16.67
2018-06-12T04:07:47.946Z,17.53
2018-06-12T04:10:20.703Z,18.17
2018-06-12T04:12:53.116Z,16.60
2018-06-12T04:15:25.858Z,17.27
2018-06-12T04:17:58.274Z,18.07
2018-06-12T04:20:30.802Z,17.17
2018-06-12T04:23:03.246Z,17.60
2018-06-12T04:25:35.676Z,18.40
2018-06-12T04:28:08.093Z,17.47
2018-06-12T04:30:40.549Z,17.47
2018-06-12T04:33:13.013Z,18.07
2018-06-12T04:35:45.536Z,18.40
2018-06-12T04:38:17.943Z,18.43
2018-06-12T04:40:50.370Z,17.83
2018-06-12T04:43:23.092Z,18.57
2018-06-12T04:45:56.074Z,18.53
2018-06-12T04:48:28.513Z,18.80
2018-06-12T04:51:00.963Z,18.20
2018-06-12T04:53:33.369Z,19.27
2018-06-12T04:56:05.781Z,18.53
2018-06-12T04:58:38.181Z,18.90
2018-06-12T05:01:10.886Z,17.80
2018-06-12T05:03:43.561Z,17.27
2018-06-12T05:06:15.990Z,19.77
2018-06-12T05:08:48.399Z,19.23
2018-06-12T05:11:20.815Z,18.83
2018-06-12T05:13:53.497Z,18.10
2018-06-12T05:16:26.244Z,16.73
2018-06-12T05:18:58.669Z,18.17
2018-06-12T05:21:31.407Z,17.57
2018-06-12T05:24:03.810Z,17.30
2018-06-12T05:26:36.222Z,16.93
2018-06-12T05:29:08.950Z,17.07
2018-06-12T05:31:41.629Z,17.43
2018-06-12T05:34:14.041Z,15.90
2018-06-12T05:36:46.466Z,17.10
2018-06-12T05:39:18.866Z,17.00
2018-06-12T05:41:51.644Z,17.30
2018-06-12T05:44:24.045Z,15.67
2018-06-12T05:46:56.756Z,16.20
2018-06-12T05:49:29.170Z,15.83
2018-06-12T05:52:01.643Z,15.80
2018-06-12T05:54:34.126Z,15.83
2018-06-12T05:57:06.557Z,15.83
2018-06-12T05:59:38.985Z,17.50
2018-06-12T06:02:11.449Z,16.73
2018-06-12T06:04:43.870Z,17.23
2018-06-12T06:07:16.541Z,16.77
2018-06-12T06:09:48.959Z,17.23
2018-06-12T06:12:21.382Z,17.43
2018-06-12T06:14:54.054Z,15.53
2018-06-12T06:17:26.749Z,16.33
2018-06-12T06:19:59.182Z,15.80
2018-06-12T06:22:31.987Z,16.40
2018-06-12T06:25:04.416Z,16.07
2018-06-12T06:27:37.162Z,16.47
2018-06-12T06:30:09.592Z,16.20
2018-06-12T06:32:42.014Z,14.67
2018-06-12T06:35:14.687Z,16.47
2018-06-12T06:37:47.137Z,15.00
2018-06-12T06:40:19.589Z,15.13
2018-06-12T06:42:52.049Z,14.07
2018-06-12T06:45:24.770Z,13.87
2018-06-12T06:47:57.473Z,14.27
2018-06-12T06:50:29.884Z,16.03
2018-06-12T06:53:02.952Z,14.90
2018-06-12T06:55:36.037Z,13.10
2018-06-12T06:58:08.473Z,12.93
2018-06-12T07:00:41.461Z,12.37
2018-06-12T07:03:13.906Z,11.93
2018-06-12T07:05:46.620Z,11.13
2018-06-12T07:08:19.054Z,11.40
2018-06-12T07:10:51.465Z,11.40
2018-06-12T07:13:24.147Z,11.83
2018-06-12T07:15:56.561Z,11.67
2018-06-12T07:18:28.993Z,12.87
2018-06-12T07:21:05.855Z,13.73
2018-06-12T07:23:38.553Z,13.90
2018-06-12T07:26:11.272Z,13.63
2018-06-12T07:28:43.719Z,13.30
2018-06-12T07:31:16.146Z,11.17
2018-06-12T07:33:48.566Z,10.90
2018-06-12T07:36:21.317Z,10.53
2018-06-12T07:38:54.002Z,9.80
2018-06-12T07:41:26.397Z,9.87
2018-06-12T07:43:59.174Z,9.47
2018-06-12T07:46:31.425Z,9.10
2018-06-12T07:49:03.871Z,9.77
2018-06-12T07:51:36.294Z,9.50
2018-06-12T07:54:08.953Z,8.10
2018-06-12T07:56:41.349Z,9.00
2018-06-12T07:59:13.784Z,9.80
2018-06-12T08:01:46.199Z,9.17
2018-06-12T08:04:18.954Z,10.00
2018-06-12T08:06:51.617Z,8.90
2018-06-12T08:09:24.058Z,9.43
2018-06-12T08:11:56.512Z,8.87
2018-06-12T08:14:28.953Z,9.47
2018-06-12T08:17:01.373Z,8.47
2018-06-12T08:19:33.790Z,8.43
2018-06-12T08:22:06.218Z,8.77
2018-06-12T08:24:38.638Z,8.13
2018-06-12T08:27:11.082Z,8.87
2018-06-12T08:29:43.534Z,9.07
2018-06-12T08:32:16.190Z,7.63
2018-06-12T08:34:48.605Z,8.13
2018-06-12T08:37:21.332Z,10.27
2018-06-12T08:39:53.816Z,11.77
2018-06-12T08:42:26.202Z,12.93
2018-06-12T08:44:58.620Z,11.80
2018-06-12T08:47:31.321Z,12.43
2018-06-12T08:50:03.746Z,13.60
2018-06-12T08:52:36.469Z,13.73
2018-06-12T08:55:08.883Z,14.13
2018-06-12T08:57:41.341Z,13.80
2018-06-12T09:00:14.393Z,14.27
2018-06-12T09:02:46.922Z,11.83
2018-06-12T09:05:19.376Z,12.33
2018-06-12T09:07:51.808Z,12.10
2018-06-12T09:10:24.481Z,13.43
2018-06-12T09:12:57.003Z,12.80
2018-06-12T09:15:29.409Z,13.47
2018-06-12T09:18:02.137Z,13.10
2018-06-12T09:20:34.379Z,13.13
2018-06-12T09:23:06.821Z,12.03
2018-06-12T09:25:39.373Z,11.27
2018-06-12T09:28:12.154Z,10.63
2018-06-12T09:30:44.834Z,11.47
2018-06-12T09:33:17.261Z,11.07
2018-06-12T09:35:50.265Z,10.33
2018-06-12T09:38:22.973Z,10.80
2018-06-12T09:40:55.447Z,10.63
2018-06-12T09:43:27.894Z,9.10
2018-06-12T09:46:00.561Z,8.37
2018-06-12T09:48:33.041Z,9.03
2018-06-12T09:51:05.503Z,10.30
2018-06-12T09:53:38.070Z,9.57
2018-06-12T09:56:10.493Z,8.73
2018-06-12T09:58:42.917Z,8.67
2018-06-12T10:01:15.652Z,9.90
2018-06-12T10:03:49.478Z,9.53
2018-06-12T10:06:21.900Z,10.90
2018-06-12T10:08:54.605Z,8.60
2018-06-12T10:11:27.031Z,8.67
2018-06-12T10:13:59.454Z,8.33
2018-06-12T10:16:32.204Z,8.67
2018-06-12T10:19:04.670Z,8.27
2018-06-12T10:21:37.078Z,8.80
2018-06-12T10:24:09.530Z,8.77
2018-06-12T10:26:41.965Z,13.20
2018-06-12T10:29:14.403Z,8.83
2018-06-12T10:31:46.867Z,7.07
2018-06-12T10:34:19.857Z,7.97
2018-06-12T10:36:52.295Z,8.33
2018-06-12T10:39:24.755Z,7.83
2018-06-12T10:41:57.449Z,7.70
2018-06-12T10:44:29.881Z,10.87
2018-06-12T10:47:02.433Z,10.23
2018-06-12T10:49:34.838Z,10.40
2018-06-12T10:52:07.257Z,10.20
2018-06-12T10:54:39.963Z,9.80
2018-06-12T10:57:12.362Z,9.07
2018-06-12T10:59:44.793Z,8.97
2018-06-12T11:02:17.185Z,8.30
2018-06-12T11:04:49.850Z,8.00
2018-06-12T11:07:22.262Z,9.50
2018-06-12T11:09:54.721Z,10.00
2018-06-12T11:12:27.109Z,8.60
2018-06-12T11:15:00.139Z,9.47
2018-06-12T11:17:32.635Z,9.57
2018-06-12T11:20:05.048Z,8.87
2018-06-12T11:22:37.478Z,9.07
2018-06-12T11:25:09.920Z,8.27
2018-06-12T11:27:42.629Z,8.33
2018-06-12T11:30:15.067Z,9.63
2018-06-12T11:32:47.580Z,9.37
2018-06-12T11:35:20.363Z,9.43
2018-06-12T11:37:52.758Z,9.93
2018-06-12T11:40:25.169Z,9.43
2018-06-12T11:42:57.800Z,7.80
2018-06-12T11:45:30.209Z,8.50
2018-06-12T11:48:02.937Z,9.10
2018-06-12T11:50:35.349Z,9.47
2018-06-12T11:53:07.765Z,8.73
2018-06-12T11:55:40.186Z,8.87
2018-06-12T11:58:12.649Z,9.50
2018-06-12T12:00:45.207Z,9.27
2018-06-12T12:03:17.621Z,9.00
2018-06-12T12:05:50.334Z,8.57
2018-06-12T12:08:23.048Z,8.20
2018-06-12T12:10:55.441Z,9.10
2018-06-12T12:13:27.851Z,8.83
2018-06-12T12:16:00.550Z,9.03
2018-06-12T12:18:32.777Z,8.27
2018-06-12T12:21:05.481Z,9.13
2018-06-12T12:23:37.899Z,8.17
2018-06-12T12:26:10.338Z,8.23
2018-06-12T12:28:43.070Z,7.87
2018-06-12T12:31:15.710Z,11.13
2018-06-12T12:33:48.130Z,10.30
2018-06-12T12:36:20.570Z,10.03
2018-06-12T12:38:52.997Z,9.40
2018-06-12T12:41:25.422Z,9.17
2018-06-12T12:43:57.981Z,9.20
2018-06-12T12:46:30.413Z,10.03
2018-06-12T12:49:03.081Z,9.70
2018-06-12T12:51:35.810Z,10.17
2018-06-12T12:54:08.549Z,10.43
2018-06-12T12:56:41.246Z,10.00
2018-06-12T12:59:13.666Z,10.37
2018-06-12T13:01:46.088Z,10.33
2018-06-12T13:04:18.492Z,10.60
2018-06-12T13:06:51.301Z,10.77
2018-06-12T13:09:23.741Z,10.93
2018-06-12T13:11:56.497Z,11.00
2018-06-12T13:14:28.911Z,10.00
2018-06-12T13:17:01.653Z,10.57
2018-06-12T13:19:34.130Z,10.70
2018-06-12T13:22:06.945Z,9.20
2018-06-12T13:24:39.366Z,10.50
2018-06-12T13:27:12.083Z,11.53
2018-06-12T13:29:44.834Z,11.30
2018-06-12T13:32:17.258Z,11.67
2018-06-12T13:34:49.681Z,12.63
2018-06-12T13:37:22.111Z,10.93
2018-06-12T13:39:54.523Z,13.27
2018-06-12T13:42:26.948Z,12.43
2018-06-12T13:44:59.362Z,15.47
2018-06-12T13:47:31.801Z,15.93
2018-06-12T13:50:04.229Z,17.47
2018-06-12T13:52:36.660Z,18.57
2018-06-12T13:55:09.058Z,19.67
2018-06-12T13:57:41.774Z,19.27
2018-06-12T14:00:14.453Z,19.20
2018-06-12T14:02:47.209Z,18.77
2018-06-12T14:05:19.659Z,18.43
2018-06-12T14:07:52.021Z,17.73
2018-06-12T14:10:24.426Z,17.30
2018-06-12T14:12:56.865Z,17.80
2018-06-12T14:15:29.292Z,17.27
2018-06-12T14:18:01.719Z,16.60
2018-06-12T14:20:34.154Z,16.87
2018-06-12T14:23:06.582Z,15.60
2018-06-12T14:25:39.006Z,14.80
2018-06-12T14:28:11.741Z,15.50
2018-06-12T14:30:44.412Z,15.50
2018-06-12T14:33:17.085Z,15.07
2018-06-12T14:35:50.508Z,14.10
2018-06-12T14:38:22.950Z,15.17
2018-06-12T14:40:55.409Z,15.47
2018-06-12T14:43:28.455Z,16.20
2018-06-12T14:46:00.869Z,17.10
2018-06-12T14:48:33.298Z,17.30
2018-06-12T14:51:05.542Z,18.20
2018-06-12T14:53:37.964Z,19.33
2018-06-12T14:56:10.369Z,17.13
2018-06-12T14:58:42.770Z,18.33
2018-06-12T15:01:15.257Z,18.00
2018-06-12T15:03:47.898Z,17.77
2018-06-12T15:06:20.314Z,17.10
2018-06-12T15:08:52.990Z,18.73
2018-06-12T15:11:25.425Z,18.77
2018-06-12T15:13:57.822Z,19.10
2018-06-12T15:16:30.490Z,18.03
2018-06-12T15:19:03.190Z,19.37
2018-06-12T15:21:36.590Z,18.33
2018-06-12T15:24:09.265Z,18.13
2018-06-12T15:26:41.920Z,18.13
2018-06-12T15:29:14.580Z,18.40
2018-06-12T15:31:46.999Z,18.00
2018-06-12T15:34:19.418Z,18.67
2018-06-12T15:36:51.845Z,17.93
2018-06-12T15:39:24.260Z,17.07
2018-06-12T15:41:56.663Z,17.53
2018-06-12T15:44:29.063Z,17.13
2018-06-12T15:47:01.822Z,16.60
2018-06-12T15:49:34.586Z,15.93
2018-06-12T15:52:07.299Z,15.67
2018-06-12T15:54:39.704Z,16.77
2018-06-12T15:57:12.129Z,16.03
2018-06-12T15:59:44.927Z,16.83
2018-06-12T16:02:17.669Z,18.23
2018-06-12T16:04:50.345Z,15.93
2018-06-12T16:07:22.834Z,16.80
2018-06-12T16:09:55.497Z,16.30
2018-06-12T16:12:28.220Z,17.13
2018-06-12T16:15:01.262Z,16.80
2018-06-12T16:17:33.740Z,17.87
2018-06-12T16:20:06.425Z,17.20
2018-06-12T16:22:38.850Z,17.80
2018-06-12T16:25:11.257Z,16.80
2018-06-12T16:27:43.677Z,17.27
2018-06-12T16:30:16.417Z,17.53
2018-06-12T16:32:48.853Z,17.30
2018-06-12T16:35:21.505Z,16.83
2018-06-12T16:37:54.265Z,16.37
2018-06-12T16:40:26.986Z,16.37
2018-06-12T16:42:59.438Z,17.27
2018-06-12T16:45:32.118Z,18.20
2018-06-12T16:48:05.289Z,18.53
2018-06-12T16:50:37.953Z,19.90
2018-06-12T16:53:10.397Z,20.53
2018-06-12T16:55:42.844Z,20.30
2018-06-12T16:58:15.257Z,20.97
2018-06-12T17:00:47.954Z,21.33
2018-06-12T17:03:20.378Z,21.57
2018-06-12T17:05:53.122Z,21.90
2018-06-12T17:08:25.565Z,21.33
2018-06-12T17:10:57.989Z,19.17
2018-06-12T17:13:30.679Z,19.53
2018-06-12T17:16:03.122Z,18.00
2018-06-12T17:18:35.550Z,18.27
2018-06-12T17:21:07.965Z,17.83
2018-06-12T17:23:40.636Z,17.87
2018-06-12T17:26:13.060Z,18.50
2018-06-12T17:28:45.535Z,17.07
2018-06-12T17:31:17.949Z,14.63
2018-06-12T17:33:50.375Z,16.80
2018-06-12T17:36:23.214Z,16.27
2018-06-12T17:38:55.654Z,15.00
2018-06-12T17:41:28.597Z,15.27
2018-06-12T17:44:01.050Z,13.37
2018-06-12T17:46:33.470Z,15.57
2018-06-12T17:49:05.920Z,14.27
2018-06-12T17:51:38.594Z,14.77
2018-06-12T17:54:11.370Z,15.17
2018-06-12T17:56:44.114Z,14.33
2018-06-12T17:59:16.561Z,14.10
2018-06-12T18:01:49.293Z,15.40
2018-06-12T18:04:21.720Z,15.10
2018-06-12T18:06:54.133Z,15.10
2018-06-12T18:09:26.605Z,15.33
2018-06-12T18:11:59.017Z,15.93
2018-06-12T18:14:31.450Z,16.07
2018-06-12T18:17:03.889Z,15.17
2018-06-12T18:19:36.325Z,15.70
2018-06-12T18:22:09.073Z,15.80
2018-06-12T18:24:41.538Z,15.83
2018-06-12T18:27:14.153Z,15.27
2018-06-12T18:29:46.910Z,13.90
2018-06-12T18:32:19.324Z,15.00
2018-06-12T18:34:52.062Z,14.80
2018-06-12T18:37:24.596Z,13.50
2018-06-12T18:39:56.913Z,14.50
2018-06-12T18:42:29.417Z,14.33
2018-06-12T18:45:01.866Z,14.50
2018-06-12T18:47:34.321Z,14.43
2018-06-12T18:50:06.757Z,15.03
2018-06-12T18:52:39.173Z,14.20
2018-06-12T18:55:11.878Z,13.93
2018-06-12T18:57:44.630Z,15.40
2018-06-12T19:00:17.069Z,13.33
2018-06-12T19:02:49.501Z,14.40
2018-06-12T19:05:21.941Z,14.97
2018-06-12T19:07:54.609Z,14.83
2018-06-12T19:10:27.046Z,15.67
2018-06-12T19:12:59.768Z,15.63
2018-06-12T19:15:32.469Z,15.40
2018-06-12T19:18:05.550Z,16.20
2018-06-12T19:20:37.973Z,15.00
2018-06-12T19:23:10.384Z,15.33
2018-06-12T19:25:43.106Z,15.90
2018-06-12T19:28:15.841Z,14.60
2018-06-12T19:30:48.537Z,14.87
2018-06-12T19:33:20.957Z,15.47
2018-06-12T19:35:53.489Z,16.13
2018-06-12T19:38:25.909Z,15.03
2018-06-12T19:40:58.339Z,15.10
2018-06-12T19:43:31.239Z,16.47
2018-06-12T19:46:04.238Z,15.50
2018-06-12T19:48:36.671Z,16.90
2018-06-12T19:51:09.093Z,16.43
2018-06-12T19:53:41.509Z,16.50
2018-06-12T19:56:14.203Z,17.63
2018-06-12T19:58:46.679Z,17.57
2018-06-12T20:01:19.108Z,16.80
2018-06-12T20:03:51.882Z,16.23
2018-06-12T20:06:24.597Z,16.77
2018-06-12T20:08:57.865Z,16.93
2018-06-12T20:11:30.665Z,16.13
2018-06-12T20:14:03.244Z,17.57
2018-06-12T20:16:35.920Z,16.63
2018-06-12T20:19:08.716Z,16.37
2018-06-12T20:21:41.214Z,17.20
2018-06-12T20:24:13.641Z,18.70
2018-06-12T20:26:46.342Z,16.60
2018-06-12T20:29:19.022Z,16.60
2018-06-12T20:31:51.693Z,16.47
2018-06-12T20:34:24.442Z,16.93
2018-06-12T20:36:56.830Z,16.37
2018-06-12T20:39:29.529Z,16.27
2018-06-12T20:42:02.216Z,16.13
2018-06-12T20:44:34.653Z,16.57
2018-06-12T20:47:07.176Z,14.80
2018-06-12T20:49:39.875Z,16.20
2018-06-12T20:52:12.542Z,15.37
2018-06-12T20:54:44.989Z,15.30
2018-06-12T20:57:17.420Z,15.47
2018-06-12T20:59:50.488Z,15.43
2018-06-12T21:02:23.222Z,15.50
2018-06-12T21:04:56.226Z,15.60
2018-06-12T21:07:29.048Z,14.70
2018-06-12T21:10:01.466Z,15.17
2018-06-12T21:12:33.877Z,15.17
2018-06-12T21:15:06.330Z,14.20
2018-06-12T21:17:38.773Z,15.10
2018-06-12T21:20:11.242Z,14.70
2018-06-12T21:22:43.648Z,14.00
2018-06-12T21:25:16.070Z,14.40
2018-06-12T21:27:48.510Z,14.97
2018-06-12T21:30:20.941Z,15.43
2018-06-12T21:32:53.865Z,15.50
2018-06-12T21:35:26.293Z,14.90
2018-06-12T21:37:58.734Z,15.50
2018-06-12T21:40:31.183Z,16.33
2018-06-12T21:43:03.862Z,15.17
2018-06-12T21:45:36.281Z,15.13
2018-06-12T21:48:08.706Z,15.10
2018-06-12T21:50:41.693Z,14.13
2018-06-12T21:53:14.373Z,13.53
2018-06-12T21:55:47.054Z,13.43
2018-06-12T21:58:19.471Z,13.17
2018-06-12T22:00:52.206Z,12.30
2018-06-12T22:03:24.950Z,11.27
2018-06-12T22:05:57.387Z,12.20
2018-06-12T22:08:29.882Z,11.90
2018-06-12T22:11:02.334Z,11.80
2018-06-12T22:13:35.702Z,11.53
2018-06-12T22:16:08.361Z,10.83
2018-06-12T22:18:40.786Z,10.97
2018-06-12T22:21:13.514Z,10.73
2018-06-12T22:23:45.967Z,10.67
2018-06-12T22:26:18.668Z,11.20
2018-06-12T22:28:51.072Z,9.37
2018-06-12T22:31:23.487Z,9.37
2018-06-12T22:33:55.894Z,9.10
2018-06-12T22:36:28.562Z,9.43
2018-06-12T22:39:00.978Z,8.60
2018-06-12T22:41:33.401Z,9.17
2018-06-12T22:44:06.161Z,8.87
2018-06-12T22:46:38.593Z,9.43
2018-06-12T22:49:11.030Z,8.73
2018-06-12T22:51:43.833Z,9.43
2018-06-12T22:54:16.233Z,8.87
2018-06-12T22:56:48.641Z,8.90
2018-06-12T22:59:21.073Z,8.90
2018-06-12T23:01:53.810Z,8.40
2018-06-12T23:04:26.202Z,8.10
2018-06-12T23:06:58.881Z,7.87
2018-06-12T23:09:31.561Z,7.80
2018-06-12T23:12:04.688Z,7.70
2018-06-12T23:14:37.636Z,6.80
2018-06-12T23:17:10.296Z,7.17
2018-06-12T23:19:54.358Z,6.63
2018-06-12T23:22:26.821Z,6.50
2018-06-12T23:24:59.209Z,6.90
2018-06-12T23:27:31.862Z,6.00
2018-06-12T23:30:04.625Z,6.23
2018-06-12T23:32:37.099Z,5.77
2018-06-12T23:35:09.819Z,5.50
2018-06-12T23:37:42.498Z,6.13
2018-06-12T23:40:15.146Z,5.80
2018-06-12T23:42:47.559Z,6.20
2018-06-12T23:45:20.279Z,5.97
2018-06-12T23:47:52.965Z,5.33
2018-06-12T23:50:25.650Z,5.63
2018-06-12T23:52:58.063Z,5.50
2018-06-12T23:55:30.471Z,5.20
2018-06-12T23:58:02.887Z,4.90
